Time;durP1;ratioP1;P1;durP2;ratioP2;P2;SDS_P1;SDS_P2;PMS_P1;PMS_P2;Temp;Humidity;BMP_temperature;BMP_pressure;BME280_temperature;BME280_humidity;BME280_pressure;Samples;Min_cycle;Max_cycle;Signal;HPM_P1;HPM_P2
2023/08/22 00:00:28;;;;;;;4.80;2.45;;;;;;;15.19;100.00;101946.00;1039468;28;20141;-54
2023/08/22 00:01:23;;;;;;;4.20;2.42;;;;;;;15.20;100.00;101944.94;1036049;28;20404;-55
2023/08/22 00:02:01;;;;;;;4.72;2.60;;;;;;;15.33;100.00;101950.19;1044357;28;20037;-53
2023/08/22 00:02:51;;;;;;;3.38;2.28;;;;;;;15.57;100.00;101954.69;1042449;28;20049;-54
2023/08/22 00:03:28;;;;;;;2.63;2.42;;;;;;;15.54;100.00;101949.78;1044807;28;20470;-54
2023/08/22 00:04:08;;;;;;;2.38;2.20;;;;;;;15.50;100.00;101948.59;1045862;28;20108;-56
2023/08/22 00:05:02;;;;;;;4.80;2.72;;;;;;;15.71;100.00;101958.13;1043939;28;20049;-55
2023/08/22 00:05:49;;;;;;;4.75;2.45;;;;;;;15.80;100.00;101958.63;1048269;28;20064;-55
2023/08/22 00:06:30;;;;;;;2.65;2.00;;;;;;;15.88;100.00;101966.41;1048342;28;20044;-55
2023/08/22 00:07:14;;;;;;;2.88;2.03;;;;;;;15.85;100.00;101961.47;1046140;28;20798;-53
2023/08/22 00:08:09;;;;;;;3.83;2.58;;;;;;;15.70;100.00;101948.41;1049868;28;20040;-56
2023/08/22 00:08:58;;;;;;;4.13;2.95;;;;;;;15.85;100.00;101946.16;1049294;28;20044;-54
2023/08/22 00:09:48;;;;;;;4.20;2.20;;;;;;;16.00;100.00;101948.50;1041683;28;20050;-55
2023/08/22 00:10:40;;;;;;;8.13;2.63;;;;;;;16.11;100.00;101955.78;1042621;28;20057;-55
2023/08/22 00:11:27;;;;;;;3.42;3.13;;;;;;;16.33;100.00;101946.19;1044794;28;20041;-55
2023/08/22 00:12:29;;;;;;;3.15;2.85;;;;;;;16.42;100.00;101951.25;1039429;28;20060;-54
2023/08/22 00:13:34;;;;;;;3.55;2.75;;;;;;;16.59;100.00;101953.09;1031145;28;20446;-55
2023/08/22 00:14:20;;;;;;;3.10;2.70;;;;;;;16.51;100.00;101953.41;1037104;28;20037;-55
2023/08/22 00:15:16;;;;;;;3.20;2.35;;;;;;;16.64;100.00;101947.00;1041741;28;20601;-55
2023/08/22 00:16:19;;;;;;;8.38;2.78;;;;;;;16.61;100.00;101948.28;1048091;28;20536;-54
2023/08/22 00:17:11;;;;;;;2.47;2.28;;;;;;;16.58;100.00;101946.06;1039196;28;20148;-55
2023/08/22 00:18:05;;;;;;;4.30;2.75;;;;;;;16.22;100.00;101951.53;1025000;28;20102;-54
2023/08/22 00:18:53;;;;;;;4.25;2.25;;;;;;;16.17;100.00;101948.72;1035982;28;20668;-55
2023/08/22 00:19:55;;;;;;;5.43;2.90;;;;;;;16.13;100.00;101952.88;1042231;28;20068;-55
2023/08/22 00:21:14;;;;;;;6.30;2.65;;;;;;;15.96;100.00;101950.00;1047696;28;20060;-54
2023/08/22 00:22:11;;;;;;;4.57;1.88;;;;;;;15.90;100.00;101950.91;1048085;28;20045;-54
2023/08/22 00:23:01;;;;;;;2.75;2.00;;;;;;;15.81;100.00;101939.59;1045156;28;20650;-54
2023/08/22 00:23:44;;;;;;;5.07;2.03;;;;;;;15.54;100.00;101941.72;1041275;28;20695;-55
2023/08/22 00:24:48;;;;;;;1.77;1.67;;;;;;;15.72;100.00;101944.47;1035782;28;20046;-55
2023/08/22 00:25:29;;;;;;;5.28;3.08;;;;;;;15.66;100.00;101934.63;1040411;28;20052;-54
2023/08/22 00:26:34;;;;;;;2.78;1.90;;;;;;;15.88;100.00;101944.91;1047289;28;20037;-55
2023/08/22 00:27:37;;;;;;;4.90;2.00;;;;;;;16.26;100.00;101939.28;1049358;28;20498;-53
2023/08/22 00:28:22;;;;;;;2.72;2.05;;;;;;;16.38;100.00;101943.66;1048793;28;20051;-54
2023/08/22 00:29:22;;;;;;;2.33;1.90;;;;;;;16.29;100.00;101936.94;1039706;28;20049;-54
2023/08/22 00:30:16;;;;;;;3.33;2.20;;;;;;;16.16;100.00;101939.84;1037979;28;20045;-54
2023/08/22 00:30:58;;;;;;;2.60;2.05;;;;;;;16.03;100.00;101940.78;1040525;28;20049;-55
2023/08/22 00:31:34;;;;;;;4.55;2.53;;;;;;;16.11;100.00;101938.84;1037417;28;20526;-53
2023/08/22 00:32:12;;;;;;;2.95;2.20;;;;;;;16.37;100.00;101950.06;1038156;28;20042;-55
2023/08/22 00:33:02;;;;;;;12.07;2.92;;;;;;;16.49;100.00;101936.69;1033233;28;20039;-54
2023/08/22 00:33:45;;;;;;;3.33;2.20;;;;;;;16.63;100.00;101940.00;1034527;28;20053;-55
2023/08/22 00:34:37;;;;;;;5.32;2.72;;;;;;;16.38;100.00;101937.44;1038871;28;20095;-54
2023/08/22 00:35:12;;;;;;;5.70;2.20;;;;;;;16.33;100.00;101937.31;1038332;28;20512;-55
2023/08/22 00:35:49;;;;;;;5.10;2.30;;;;;;;16.36;100.00;101937.69;1040397;28;20565;-53
2023/08/22 00:36:23;;;;;;;4.55;2.63;;;;;;;16.29;100.00;101931.56;1045332;28;20116;-55
2023/08/22 00:37:09;;;;;;;5.45;2.90;;;;;;;16.26;100.00;101934.72;1044331;28;20048;-54
2023/08/22 00:38:07;;;;;;;4.07;2.38;;;;;;;16.36;100.00;101937.69;1045724;28;20534;-55
2023/08/22 00:39:01;;;;;;;2.95;2.03;;;;;;;16.55;100.00;101929.56;1047054;28;20053;-55
2023/08/22 00:39:45;;;;;;;5.97;2.70;;;;;;;16.51;100.00;101929.22;1047149;28;20593;-54
2023/08/22 00:40:25;;;;;;;3.92;2.42;;;;;;;16.58;100.00;101926.41;1050087;28;20044;-53
2023/08/22 00:41:17;;;;;;;2.90;2.20;;;;;;;16.57;100.00;101920.22;1049163;28;20728;-55
2023/08/22 00:42:03;;;;;;;2.85;2.40;;;;;;;16.59;100.00;101920.00;1048484;28;21850;-54
2023/08/22 00:42:40;;;;;;;8.50;2.80;;;;;;;16.62;100.00;101914.97;1045358;28;20041;-55
2023/08/22 00:43:28;;;;;;;3.05;2.75;;;;;;;16.52;100.00;101914.72;1036870;28;20064;-55
2023/08/22 00:44:05;;;;;;;6.82;2.63;;;;;;;16.22;100.00;101912.03;1040340;28;20111;-55
2023/08/22 00:45:05;;;;;;;2.80;2.60;;;;;;;16.31;100.00;101912.53;1041123;28;20061;-55
2023/08/22 00:46:25;;;;;;;3.30;2.13;;;;;;;16.48;100.00;101918.09;1038506;28;20053;-55
2023/08/22 00:47:06;;;;;;;2.85;1.98;;;;;;;16.36;100.00;101913.47;1036411;28;20504;-55
2023/08/22 00:47:52;;;;;;;2.58;2.08;;;;;;;16.32;100.00;101920.38;1047328;28;20045;-54
2023/08/22 00:48:40;;;;;;;3.30;2.03;;;;;;;16.28;100.00;101913.81;1049535;28;20406;-54
2023/08/22 00:49:19;;;;;;;5.68;2.72;;;;;;;16.38;100.00;101918.63;1049481;28;20067;-54
2023/08/22 00:50:04;;;;;;;4.97;2.60;;;;;;;16.23;100.00;101910.97;1040944;28;20053;-54
2023/08/22 00:50:45;;;;;;;3.70;2.03;;;;;;;16.22;100.00;101913.91;1040539;28;20037;-55
2023/08/22 00:51:49;;;;;;;2.17;2.00;;;;;;;16.26;100.00;101923.97;1038982;28;20049;-53
2023/08/22 00:52:38;;;;;;;2.35;2.03;;;;;;;16.42;100.00;101916.28;1042515;28;20056;-55
2023/08/22 00:53:28;;;;;;;4.18;2.30;;;;;;;16.43;100.00;101917.94;1044116;28;20079;-55
2023/08/22 00:54:32;;;;;;;6.05;2.53;;;;;;;16.18;100.00;101912.72;1031345;28;20394;-55
2023/08/22 00:55:25;;;;;;;2.42;1.95;;;;;;;16.09;100.00;101917.56;1046402;28;20037;-55
2023/08/22 00:56:09;;;;;;;;;;;;;;;15.86;100.00;101914.75;1045355;28;20045;-55
2023/08/22 00:56:57;;;;;;;5.15;2.42;;;;;;;15.94;100.00;101922.53;1039548;28;19955;-55
2023/08/22 00:57:40;;;;;;;1.90;1.80;;;;;;;15.84;100.00;101919.53;1042248;28;20619;-55
2023/08/22 00:58:23;;;;;;;3.38;1.92;;;;;;;15.96;100.00;101926.63;1041791;28;20125;-55
2023/08/22 00:59:02;;;;;;;2.33;2.13;;;;;;;15.86;100.00;101930.88;1037305;28;20049;-55
2023/08/22 00:59:42;;;;;;;2.22;2.05;;;;;;;15.80;100.00;101921.84;1034011;28;20054;-55
2023/08/22 01:00:30;;;;;;;2.38;1.52;;;;;;;15.86;100.00;101920.94;1035620;28;20145;-55
2023/08/22 01:01:19;;;;;;;10.73;1.90;;;;;;;15.95;100.00;101926.84;1044189;28;20429;-54
2023/08/22 01:02:07;;;;;;;2.03;1.85;;;;;;;15.94;100.00;101926.03;1049625;28;20056;-53
2023/08/22 01:03:13;;;;;;;1.80;1.55;;;;;;;15.82;100.00;101925.13;1044521;28;20029;-53
2023/08/22 01:03:56;;;;;;;2.92;2.08;;;;;;;15.82;100.00;101918.94;1036248;28;20045;-56
2023/08/22 01:04:51;;;;;;;2.53;2.20;;;;;;;15.83;100.00;101917.88;1045197;28;20083;-53
2023/08/22 01:05:30;;;;;;;4.68;1.88;;;;;;;15.74;100.00;101915.50;1044539;28;20045;-55
2023/08/22 01:06:15;;;;;;;6.28;1.92;;;;;;;15.81;100.00;101906.53;1046341;28;20037;-53
2023/08/22 01:07:08;;;;;;;3.67;2.15;;;;;;;15.97;100.00;101919.38;1039797;28;20096;-54
2023/08/22 01:08:13;;;;;;;2.95;1.60;;;;;;;16.29;100.00;101910.06;1038828;28;20511;-55
2023/08/22 01:09:11;;;;;;;7.38;2.15;;;;;;;16.45;100.00;101916.69;1035853;28;20559;-55
2023/08/22 01:10:36;;;;;;;2.42;2.13;;;;;;;16.54;100.00;101907.22;1040143;28;20046;-55
2023/08/22 01:11:44;;;;;;;6.03;2.47;;;;;;;16.45;100.00;101905.09;1027260;28;20516;-51
2023/08/22 01:12:44;;;;;;;4.03;2.58;;;;;;;16.55;100.00;101899.97;1046359;28;20418;-53
2023/08/22 01:13:37;;;;;;;2.42;2.20;;;;;;;16.37;100.00;101907.03;1047645;28;20075;-55
2023/08/22 01:14:23;;;;;;;4.00;2.60;;;;;;;16.31;100.00;101902.59;1044408;28;20056;-54
2023/08/22 01:15:19;;;;;;;5.15;2.35;;;;;;;16.38;100.00;101903.31;1040548;28;20045;-55
2023/08/22 01:16:01;;;;;;;4.53;2.40;;;;;;;16.32;100.00;101898.84;1036628;28;20290;-54
2023/08/22 01:16:42;;;;;;;3.40;2.55;;;;;;;16.25;100.00;101902.69;1043288;28;20088;-56
2023/08/22 01:17:17;;;;;;;6.30;2.63;;;;;;;16.18;100.00;101901.97;1040531;28;20072;-54
2023/08/22 01:17:49;;;;;;;3.75;2.90;;;;;;;16.05;100.00;101903.75;1042975;28;20048;-54
2023/08/22 01:18:40;;;;;;;5.57;2.60;;;;;;;15.88;100.00;101891.97;1046712;28;20060;-56
2023/08/22 01:19:28;;;;;;;3.78;2.55;;;;;;;16.04;100.00;101896.75;1049212;28;20131;-53
2023/08/22 01:20:12;;;;;;;5.40;2.72;;;;;;;15.93;100.00;101899.38;1048126;28;20126;-55
2023/08/22 01:21:08;;;;;;;4.05;2.25;;;;;;;15.84;100.00;101892.66;1037645;28;20050;-56
2023/08/22 01:21:51;;;;;;;7.50;2.60;;;;;;;15.96;100.00;101896.25;1039582;28;20052;-55
2023/08/22 01:22:25;;;;;;;4.60;2.25;;;;;;;15.85;100.00;101902.34;1041066;28;20053;-55
2023/08/22 01:23:00;;;;;;;4.82;2.65;;;;;;;15.83;100.00;101907.13;1043974;28;20119;-55
2023/08/22 01:23:50;;;;;;;;;;;;;;;;;;;;;
2023/08/22 01:24:49;;;;;;;3.92;2.30;;;;;;;15.76;100.00;101908.03;1049056;28;20055;-55
2023/08/22 01:26:41;;;;;;;2.60;2.40;;;;;;;15.82;100.00;101918.94;1049222;28;20506;-54
2023/08/22 01:27:51;;;;;;;3.95;2.70;;;;;;;16.11;100.00;101915.47;1048053;28;20044;-53
2023/08/22 01:28:40;;;;;;;2.30;2.10;;;;;;;16.04;100.00;101906.69;1046483;28;20032;-55
2023/08/22 01:29:37;;;;;;;3.50;2.60;;;;;;;15.91;100.00;101913.06;1041176;28;20049;-53
2023/08/22 01:30:46;;;;;;;2.55;2.22;;;;;;;16.08;100.00;101910.56;1040759;28;20041;-55
2023/08/22 01:31:43;;;;;;;2.38;1.98;;;;;;;15.81;100.00;101909.22;1039525;28;20052;-53
2023/08/22 01:34:02;;;;;;;3.03;2.70;;;;;;;15.62;100.00;101903.88;1041934;28;20573;-54
2023/08/22 01:34:55;;;;;;;4.65;2.10;;;;;;;15.59;100.00;101908.84;1048460;28;20070;-55
2023/08/22 01:35:58;;;;;;;4.55;2.33;;;;;;;15.55;100.00;101903.06;1044733;28;20052;-53
2023/08/22 01:36:38;;;;;;;4.47;2.83;;;;;;;15.58;100.00;101913.41;1048099;28;20044;-55
2023/08/22 01:37:23;;;;;;;2.45;2.22;;;;;;;15.69;100.00;101904.63;1046112;28;20041;-55
2023/08/22 01:37:59;;;;;;;6.22;2.95;;;;;;;15.81;100.00;101906.53;1045309;28;20048;-56
2023/08/22 01:38:37;;;;;;;2.75;2.55;;;;;;;15.93;100.00;101910.13;1041324;28;20438;-55
2023/08/22 01:39:23;;;;;;;4.68;2.30;;;;;;;15.67;100.00;101905.91;1036620;28;20034;-53
2023/08/22 01:40:11;;;;;;;3.45;2.03;;;;;;;15.57;100.00;101906.38;1038202;28;20060;-55
2023/08/22 01:40:58;;;;;;;3.75;2.00;;;;;;;15.46;100.00;101904.44;1021375;28;20525;-52
2023/08/22 01:41:41;;;;;;;7.18;2.78;;;;;;;15.39;100.00;101898.31;1036317;28;20049;-55
2023/08/22 01:42:20;;;;;;;3.72;2.33;;;;;;;15.31;100.00;101898.56;1035978;28;20138;-55
2023/08/22 01:42:59;;;;;;;2.30;2.05;;;;;;;15.17;100.00;101899.75;1033032;28;20440;-54
2023/08/22 01:43:43;;;;;;;4.45;2.20;;;;;;;15.10;100.00;101911.38;1033417;28;20035;-56
2023/08/22 01:44:30;;;;;;;4.45;2.42;;;;;;;15.17;100.00;101905.13;1034857;28;20038;-53
2023/08/22 01:45:16;;;;;;;3.10;2.25;;;;;;;15.32;100.00;101908.28;1046024;28;20438;-53
2023/08/22 01:45:48;;;;;;;2.15;1.80;;;;;;;15.13;100.00;101910.13;1046124;28;20033;-56
2023/08/22 01:46:29;;;;;;;4.85;2.13;;;;;;;14.94;100.00;101906.56;1048291;28;20106;-54
2023/08/22 01:47:13;;;;;;;5.55;2.40;;;;;;;14.84;100.00;101898.19;1044781;28;20045;-55
2023/08/22 01:47:59;;;;;;;2.60;2.40;;;;;;;15.22;100.00;101907.97;1040970;28;20041;-55
2023/08/22 01:48:39;;;;;;;2.15;1.95;;;;;;;15.10;100.00;101913.25;1031969;28;20054;-53
2023/08/22 01:49:27;;;;;;;4.18;2.45;;;;;;;14.97;100.00;101902.59;1035478;28;20128;-55
2023/08/22 01:50:09;;;;;;;2.90;2.60;;;;;;;15.06;100.00;101902.09;1043576;28;20410;-53
2023/08/22 01:50:55;;;;;;;3.42;2.35;;;;;;;15.11;100.00;101896.91;1039374;28;20045;-56
2023/08/22 01:51:28;;;;;;;4.22;2.15;;;;;;;14.93;100.00;101902.22;1035041;28;20100;-55
2023/08/22 01:52:01;;;;;;;7.50;2.40;;;;;;;15.15;100.00;101898.13;1038794;28;20073;-55
2023/08/22 01:52:54;;;;;;;4.75;3.88;;;;;;;15.11;100.00;101902.28;1042338;28;20646;-55
2023/08/22 01:53:51;;;;;;;5.50;2.55;;;;;;;15.09;100.00;101900.88;1044454;28;20041;-54
2023/08/22 01:54:38;;;;;;;4.85;2.67;;;;;;;15.07;100.00;101911.00;1047661;28;20078;-54
2023/08/22 01:55:23;;;;;;;2.58;2.38;;;;;;;15.18;100.00;101907.59;1050952;28;20044;-53
2023/08/22 01:56:00;;;;;;;5.10;2.90;;;;;;;15.17;100.00;101905.13;1041260;28;20037;-55
2023/08/22 01:56:45;;;;;;;2.65;2.45;;;;;;;15.12;100.00;101905.78;1043418;28;20061;-54
2023/08/22 01:57:38;;;;;;;3.17;2.50;;;;;;;15.01;100.00;101907.31;1034384;28;20522;-54
2023/08/22 01:58:35;;;;;;;2.97;2.67;;;;;;;15.19;100.00;101903.88;1035535;28;20528;-55
2023/08/22 01:59:30;;;;;;;4.40;2.63;;;;;;;15.30;100.00;101895.06;1044518;28;20124;-55
2023/08/22 02:00:27;;;;;;;2.85;2.40;;;;;;;15.04;100.00;101901.50;1039695;28;20049;-53
2023/08/22 02:01:11;;;;;;;3.08;2.63;;;;;;;14.92;100.00;101889.84;1045231;28;20041;-53
2023/08/22 02:01:49;;;;;;;3.28;2.75;;;;;;;14.88;100.00;101896.69;1039423;28;20041;-54
2023/08/22 02:02:21;;;;;;;3.53;2.67;;;;;;;14.96;100.00;101893.75;1039439;28;20593;-53
2023/08/22 02:02:53;;;;;;;3.13;2.40;;;;;;;15.06;100.00;101891.38;1042227;28;20041;-55
2023/08/22 02:03:27;;;;;;;3.75;3.35;;;;;;;15.10;100.00;101889.91;1046648;28;20052;-52
2023/08/22 02:04:03;;;;;;;4.28;2.67;;;;;;;15.05;100.00;101886.22;1047643;28;20414;-53
2023/08/22 02:04:35;;;;;;;4.90;2.70;;;;;;;14.74;100.00;101892.47;1047789;28;20131;-55
2023/08/22 02:05:08;;;;;;;5.03;2.60;;;;;;;14.68;100.00;101890.66;1047459;28;20115;-56
2023/08/22 02:05:40;;;;;;;3.53;2.70;;;;;;;14.59;100.00;101894.66;1047428;28;20182;-55
2023/08/22 02:06:13;;;;;;;5.38;2.45;;;;;;;14.60;100.00;101894.44;1044326;28;20384;-55
2023/08/22 02:06:46;;;;;;;4.68;2.83;;;;;;;14.59;100.00;101889.28;1047577;28;20040;-55
2023/08/22 02:07:17;;;;;;;7.72;2.88;;;;;;;14.63;100.00;101885.94;1047617;28;20041;-53
2023/08/22 02:07:49;;;;;;;4.55;2.50;;;;;;;14.75;100.00;101886.06;1044019;28;20487;-53
2023/08/22 02:08:21;;;;;;;7.30;2.60;;;;;;;15.04;100.00;101888.09;1048034;28;20045;-53
2023/08/22 02:08:52;;;;;;;7.85;3.80;;;;;;;15.12;100.00;101893.19;1047434;28;20393;-52
2023/08/22 02:09:25;;;;;;;2.95;2.42;;;;;;;15.10;100.00;101889.91;1047900;28;20809;-53
2023/08/22 02:09:58;;;;;;;5.45;2.50;;;;;;;15.33;100.00;101888.44;1049166;28;20040;-53
2023/08/22 02:10:29;;;;;;;6.78;3.60;;;;;;;15.50;100.00;101883.31;1047572;28;20048;-54
2023/08/22 02:11:02;;;;;;;3.22;2.60;;;;;;;15.53;100.00;101886.38;1047737;28;20098;-56
2023/08/22 02:11:34;;;;;;;3.58;3.00;;;;;;;15.52;100.00;101892.78;1048615;28;20054;-53
2023/08/22 02:12:06;;;;;;;6.28;2.40;;;;;;;15.53;100.00;101883.69;1047648;28;20049;-54
2023/08/22 02:12:37;;;;;;;4.78;3.58;;;;;;;15.54;100.00;101890.69;1047781;28;20041;-53
2023/08/22 02:13:09;;;;;;;3.15;2.72;;;;;;;15.49;100.00;101887.03;1048506;28;20133;-54
2023/08/22 02:13:41;;;;;;;3.38;3.08;;;;;;;15.54;100.00;101889.88;1048692;28;20057;-53
2023/08/22 02:14:13;;;;;;;11.70;3.15;;;;;;;15.58;100.00;101889.22;1047601;28;20049;-53
2023/08/22 02:14:46;;;;;;;5.30;3.13;;;;;;;15.53;100.00;101891.75;1047792;28;20041;-55
2023/08/22 02:15:19;;;;;;;3.92;3.33;;;;;;;15.52;100.00;101883.91;1052078;28;20104;-53
2023/08/22 02:15:51;;;;;;;10.80;3.60;;;;;;;15.60;100.00;101884.47;1047797;28;20037;-54
2023/08/22 02:16:24;;;;;;;4.30;3.55;;;;;;;15.74;100.00;101883.28;1048006;28;20055;-53
2023/08/22 02:16:56;;;;;;;4.47;2.50;;;;;;;15.72;100.00;101882.69;1045579;28;20037;-54
2023/08/22 02:17:28;;;;;;;4.65;2.63;;;;;;;15.58;100.00;101886.53;1047839;28;20044;-53
2023/08/22 02:18:02;;;;;;;5.43;4.10;;;;;;;15.34;100.00;101884.72;1047396;28;20048;-54
2023/08/22 02:18:33;;;;;;;5.85;2.72;;;;;;;15.24;100.00;101885.22;1048215;28;20089;-54
2023/08/22 02:19:06;;;;;;;2.42;2.28;;;;;;;15.35;100.00;101883.69;1047327;28;20126;-53
2023/08/22 02:19:38;;;;;;;3.90;2.60;;;;;;;15.34;100.00;101882.03;1046638;28;20044;-53
2023/08/22 02:20:12;;;;;;;3.92;2.67;;;;;;;15.17;100.00;101883.66;1047955;28;20047;-52
2023/08/22 02:20:43;;;;;;;4.65;2.50;;;;;;;15.20;100.00;101888.56;1045045;28;20088;-54
2023/08/22 02:21:17;;;;;;;6.35;3.33;;;;;;;15.38;100.00;101883.25;1047465;28;20043;-52
2023/08/22 02:21:48;;;;;;;3.50;2.70;;;;;;;15.33;100.00;101883.06;1047729;28;20086;-54
2023/08/22 02:22:20;;;;;;;3.25;2.95;;;;;;;15.11;100.00;101875.44;1044248;28;20124;-53
2023/08/22 02:22:53;;;;;;;2.72;2.45;;;;;;;15.08;100.00;101878.59;1043688;28;20395;-55
2023/08/22 02:23:26;;;;;;;3.25;2.92;;;;;;;15.15;100.00;101881.19;1047834;28;20040;-55
2023/08/22 02:23:58;;;;;;;5.05;2.97;;;;;;;15.25;100.00;101886.03;1044126;28;20059;-54
2023/08/22 02:24:30;;;;;;;5.53;3.15;;;;;;;15.17;100.00;101880.97;1047716;28;20037;-55
2023/08/22 02:25:04;;;;;;;3.67;3.38;;;;;;;15.02;100.00;101874.06;1047278;28;20450;-54
2023/08/22 02:25:36;;;;;;;3.83;2.97;;;;;;;14.96;100.00;101879.50;1048785;28;20041;-55
2023/08/22 02:26:08;;;;;;;2.40;2.20;;;;;;;14.96;100.00;101877.63;1048153;28;20075;-53
2023/08/22 02:26:42;;;;;;;3.42;2.53;;;;;;;15.10;100.00;101878.34;1047775;28;20044;-53
2023/08/22 02:27:20;;;;;;;5.95;3.05;;;;;;;14.81;100.00;101882.53;1047444;28;20052;-52
2023/08/22 02:27:52;;;;;;;5.80;2.90;;;;;;;14.73;100.00;101878.22;1044087;28;20399;-55
2023/08/22 02:28:24;;;;;;;2.85;2.60;;;;;;;14.80;100.00;101880.88;1044551;28;20037;-55
2023/08/22 02:28:56;;;;;;;5.28;2.55;;;;;;;14.82;100.00;101876.13;1044171;28;20199;-55
2023/08/22 02:29:28;;;;;;;4.78;2.53;;;;;;;14.85;100.00;101881.03;1044299;28;20110;-54
2023/08/22 02:30:00;;;;;;;4.70;2.20;;;;;;;14.68;100.00;101877.25;1048866;28;20037;-53
2023/08/22 02:30:33;;;;;;;2.83;2.28;;;;;;;14.88;100.00;101879.78;1047472;28;20178;-55
2023/08/22 02:31:06;;;;;;;3.90;2.67;;;;;;;14.77;100.00;101873.25;1044844;28;20044;-55
2023/08/22 02:31:38;;;;;;;3.50;2.55;;;;;;;14.75;100.00;101876.16;1048042;28;20052;-53
2023/08/22 02:32:10;;;;;;;3.92;2.15;;;;;;;14.90;100.00;101875.84;1047649;28;20087;-55
2023/08/22 02:32:44;;;;;;;6.18;2.50;;;;;;;15.10;100.00;101879.19;1048246;28;20488;-55
2023/08/22 02:33:16;;;;;;;3.83;2.63;;;;;;;15.15;100.00;101882.00;1047869;28;20474;-54
2023/08/22 02:33:48;;;;;;;3.28;2.10;;;;;;;15.02;100.00;101882.13;1047909;28;20474;-55
2023/08/22 02:34:20;;;;;;;5.35;2.40;;;;;;;15.08;100.00;101881.25;1045359;28;20052;-52
2023/08/22 02:34:52;;;;;;;6.60;2.80;;;;;;;15.10;100.00;101879.19;1047484;28;20048;-53
2023/08/22 02:35:24;;;;;;;4.82;2.53;;;;;;;15.11;100.00;101878.13;1047593;28;20131;-56
2023/08/22 02:35:56;;;;;;;2.85;2.55;;;;;;;14.97;100.00;101867.72;1047380;28;20170;-53
2023/08/22 02:36:27;;;;;;;4.03;2.38;;;;;;;14.92;100.00;101879.13;1049094;28;20044;-52
2023/08/22 02:37:00;;;;;;;3.67;3.08;;;;;;;15.01;100.00;101880.47;1047439;28;20064;-55
2023/08/22 02:37:31;;;;;;;7.35;2.53;;;;;;;15.12;100.00;101876.28;1048732;28;20503;-55
2023/08/22 02:38:03;;;;;;;5.93;2.20;;;;;;;15.11;100.00;101875.44;1047992;28;20044;-55
2023/08/22 02:38:36;;;;;;;5.43;2.92;;;;;;;15.03;100.00;101875.72;1048023;28;20051;-55
2023/08/22 02:39:09;;;;;;;3.72;3.05;;;;;;;15.06;100.00;101879.81;1047395;28;20037;-55
2023/08/22 02:39:41;;;;;;;4.60;2.88;;;;;;;15.02;100.00;101870.56;1048069;28;20044;-53
2023/08/22 02:40:12;;;;;;;5.10;3.13;;;;;;;15.10;100.00;101881.03;1048151;28;20041;-53
2023/08/22 02:40:44;;;;;;;4.70;2.38;;;;;;;14.95;100.00;101878.69;1047431;28;20190;-53
2023/08/22 02:41:16;;;;;;;3.92;2.78;;;;;;;15.03;100.00;101881.06;1047804;28;20108;-53
2023/08/22 02:41:47;;;;;;;2.85;2.40;;;;;;;15.03;100.00;101882.94;1047830;28;20049;-53
2023/08/22 02:42:19;;;;;;;2.45;2.25;;;;;;;15.11;100.00;101875.44;1047667;28;20044;-53
2023/08/22 02:42:51;;;;;;;2.60;2.40;;;;;;;15.28;100.00;101891.78;1047941;28;20121;-53
2023/08/22 02:43:22;;;;;;;4.40;2.92;;;;;;;15.22;100.00;101881.13;1047788;28;20036;-53
2023/08/22 02:43:54;;;;;;;2.85;2.53;;;;;;;15.17;100.00;101883.66;1047371;28;20059;-53
2023/08/22 02:44:25;;;;;;;2.80;2.53;;;;;;;15.34;100.00;101879.34;1047577;28;20514;-53
2023/08/22 02:44:57;;;;;;;5.85;3.25;;;;;;;15.35;100.00;101881.00;1047437;28;20043;-53
2023/08/22 02:45:29;;;;;;;5.22;2.85;;;;;;;15.36;100.00;101883.47;1047406;28;20051;-53
2023/08/22 02:46:01;;;;;;;3.53;2.58;;;;;;;15.53;100.00;101883.69;1047675;28;20158;-54
2023/08/22 02:46:32;;;;;;;3.15;2.95;;;;;;;15.66;100.00;101877.41;1045688;28;20094;-55
2023/08/22 02:47:05;;;;;;;4.65;3.20;;;;;;;15.69;100.00;101882.31;1047417;28;20417;-55
2023/08/22 02:47:36;;;;;;;4.32;3.08;;;;;;;15.71;100.00;101872.16;1043432;28;20069;-55
2023/08/22 02:48:08;;;;;;;5.10;2.72;;;;;;;15.68;100.00;101875.31;1043818;28;20045;-55
2023/08/22 02:48:40;;;;;;;5.05;2.30;;;;;;;15.40;100.00;101876.59;1047213;28;20806;-53
2023/08/22 02:49:12;;;;;;;5.45;3.08;;;;;;;15.31;100.00;101863.69;1043190;28;20052;-55
2023/08/22 02:49:45;;;;;;;2.65;2.38;;;;;;;15.57;100.00;101871.44;1046367;28;20091;-53
2023/08/22 02:50:17;;;;;;;4.20;2.35;;;;;;;15.59;100.00;101864.00;1047462;28;20044;-53
2023/08/22 02:50:49;;;;;;;4.50;2.63;;;;;;;15.69;100.00;101867.03;1043592;28;20090;-54
2023/08/22 02:51:21;;;;;;;4.22;2.38;;;;;;;15.76;100.00;101864.25;1047965;28;20044;-52
2023/08/22 02:51:53;;;;;;;3.03;2.72;;;;;;;15.72;100.00;101861.19;1043774;28;20041;-54
2023/08/22 02:52:25;;;;;;;3.78;2.67;;;;;;;15.69;100.00;101871.56;1044480;28;20222;-55
2023/08/22 02:52:56;;;;;;;3.20;2.88;;;;;;;15.65;100.00;101871.19;1048107;28;20032;-54
2023/08/22 02:53:28;;;;;;;3.08;2.78;;;;;;;15.71;100.00;101867.59;1047216;28;20117;-53
2023/08/22 02:54:00;;;;;;;3.63;2.95;;;;;;;15.80;100.00;101868.13;1047494;28;20048;-52
2023/08/22 02:54:31;;;;;;;8.10;3.83;;;;;;;15.86;100.00;101866.38;1048543;28;20040;-54
2023/08/22 02:55:03;;;;;;;2.95;2.67;;;;;;;15.89;100.00;101871.34;1048016;28;20127;-52
2023/08/22 02:55:36;;;;;;;5.90;2.92;;;;;;;15.99;100.00;101868.91;1047561;28;21593;-53
2023/08/22 02:56:26;;;;;;;5.97;3.00;;;;;;;15.96;100.00;101872.06;1047826;28;20048;-53
2023/08/22 02:56:59;;;;;;;3.25;2.50;;;;;;;15.62;100.00;101876.22;1046984;28;20079;-52
2023/08/22 02:57:31;;;;;;;3.47;2.75;;;;;;;15.49;100.00;101870.94;1047460;28;20048;-52
2023/08/22 02:58:03;;;;;;;3.88;2.85;;;;;;;15.36;100.00;101861.16;1042964;28;20039;-53
2023/08/22 02:58:38;;;;;;;3.78;3.03;;;;;;;15.34;100.00;101868.59;1041411;28;20446;-52
2023/08/22 02:59:10;;;;;;;2.67;2.47;;;;;;;15.34;100.00;101863.22;1043467;28;20144;-55
2023/08/22 02:59:42;;;;;;;3.08;2.78;;;;;;;15.32;100.00;101862.63;1043351;28;20106;-55
2023/08/22 03:00:14;;;;;;;4.28;3.17;;;;;;;15.23;100.00;101861.28;1043017;28;20056;-55
2023/08/22 03:00:46;;;;;;;3.05;2.63;;;;;;;15.23;100.00;101869.34;1047480;28;20049;-54
2023/08/22 03:01:19;;;;;;;5.40;2.38;;;;;;;15.21;100.00;101866.06;1047246;28;20044;-55
2023/08/22 03:01:51;;;;;;;6.43;2.47;;;;;;;15.26;100.00;101868.91;1047897;28;20538;-55
2023/08/22 03:02:23;;;;;;;2.75;2.50;;;;;;;15.22;100.00;101867.69;1047201;28;20464;-55
2023/08/22 03:02:57;;;;;;;4.22;2.55;;;;;;;15.29;100.00;101871.13;1047055;28;20044;-54
2023/08/22 03:03:29;;;;;;;3.47;2.42;;;;;;;15.24;100.00;101868.31;1047189;28;20051;-54
2023/08/22 03:04:01;;;;;;;3.85;2.72;;;;;;;15.29;100.00;101871.97;1048599;28;20126;-55
2023/08/22 03:04:33;;;;;;;6.40;3.05;;;;;;;15.22;100.00;101870.38;1047026;28;20153;-53
2023/08/22 03:05:12;;;;;;;5.35;2.38;;;;;;;15.19;100.00;101865.47;1042269;28;20402;-54
2023/08/22 03:05:44;;;;;;;2.75;2.38;;;;;;;15.23;100.00;101869.34;1043008;28;20136;-55
2023/08/22 03:06:17;;;;;;;3.50;2.63;;;;;;;15.20;100.00;101865.25;1041098;28;20047;-54
2023/08/22 03:06:49;;;;;;;2.72;2.53;;;;;;;15.21;100.00;101868.75;1044594;28;20033;-53
2023/08/22 03:07:20;;;;;;;3.92;2.90;;;;;;;15.17;100.00;101867.56;1045072;28;20558;-55
2023/08/22 03:07:52;;;;;;;2.92;2.58;;;;;;;15.04;100.00;101868.47;1047182;28;20394;-53
2023/08/22 03:08:24;;;;;;;5.47;2.58;;;;;;;14.95;100.00;101873.31;1047794;28;20044;-55
2023/08/22 03:08:56;;;;;;;5.88;2.58;;;;;;;15.04;100.00;101863.94;1048131;28;20052;-55
2023/08/22 03:09:29;;;;;;;6.55;2.72;;;;;;;15.03;100.00;101872.22;1047452;28;20068;-52
2023/08/22 03:10:01;;;;;;;4.10;2.33;;;;;;;14.89;100.00;101866.16;1043651;28;20411;-53
2023/08/22 03:10:36;;;;;;;2.95;2.65;;;;;;;14.93;100.00;101867.34;1041560;28;20533;-53
2023/08/22 03:11:08;;;;;;;3.28;2.85;;;;;;;15.12;100.00;101866.34;1041121;28;20131;-54
2023/08/22 03:11:39;;;;;;;3.42;2.90;;;;;;;15.29;100.00;101865.75;1041393;28;20395;-52
2023/08/22 03:12:11;;;;;;;5.10;2.80;;;;;;;15.31;100.00;101864.50;1048157;28;20045;-52